TimePDT,TemperatureF,Dew PointF,Humidity,Sea Level PressureIn,VisibilityMPH,Wind Direction,Wind SpeedMPH,Gust SpeedMPH,PrecipitationIn,Events,Conditions,WindDirDegrees,DateUTC
12:15 AM,39.2,35.6,87,30.26,10.0,West,3.5,-,N/A,,Clear,270,2013-03-12 07:15:00
12:35 AM,39.2,35.6,87,30.27,10.0,WNW,3.5,-,N/A,,Clear,290,2013-03-12 07:35:00
12:55 AM,39.2,35.6,87,30.27,10.0,West,5.8,-,N/A,,Clear,280,2013-03-12 07:55:00
1:15 AM,39.2,35.6,87,30.27,9.0,West,5.8,-,N/A,,Clear,270,2013-03-12 08:15:00
1:35 AM,37.4,35.6,93,30.27,10.0,West,3.5,-,N/A,,Clear,280,2013-03-12 08:35:00
1:55 AM,37.4,35.6,93,30.27,10.0,West,3.5,-,N/A,,Clear,270,2013-03-12 08:55:00
2:15 AM,37.4,35.6,93,30.27,10.0,West,3.5,-,N/A,,Clear,280,2013-03-12 09:15:00
2:35 AM,37.4,35.6,93,30.27,10.0,WNW,3.5,-,N/A,,Clear,290,2013-03-12 09:35:00
2:55 AM,37.4,35.6,93,30.27,10.0,West,3.5,-,N/A,,Clear,280,2013-03-12 09:55:00
3:15 AM,35.6,35.6,100,30.27,10.0,WNW,4.6,-,N/A,,Clear,290,2013-03-12 10:15:00
3:35 AM,37.4,35.6,93,30.26,10.0,West,4.6,-,N/A,,Clear,280,2013-03-12 10:35:00
3:55 AM,37.4,35.6,93,30.25,10.0,West,3.5,-,N/A,,Clear,270,2013-03-12 10:55:00
4:15 AM,35.6,33.8,93,30.26,10.0,WNW,4.6,-,N/A,,Clear,290,2013-03-12 11:15:00
4:35 AM,35.6,33.8,93,30.25,10.0,WNW,3.5,-,N/A,,Clear,290,2013-03-12 11:35:00
4:55 AM,35.6,33.8,93,30.26,10.0,Calm,Calm,-,N/A,,Clear,0,2013-03-12 11:55:00
5:15 AM,35.6,32.0,87,30.26,10.0,West,3.5,-,N/A,,Clear,270,2013-03-12 12:15:00
5:35 AM,33.8,32.0,93,30.26,10.0,Calm,Calm,-,N/A,,Clear,0,2013-03-12 12:35:00
5:55 AM,33.8,32.0,93,30.26,10.0,Calm,Calm,-,N/A,,Clear,0,2013-03-12 12:55:00
6:15 AM,32.0,32.0,100,30.26,10.0,West,3.5,-,N/A,,Clear,280,2013-03-12 13:15:00
6:35 AM,32.0,32.0,100,30.26,3.0,Calm,Calm,-,N/A,,Clear,0,2013-03-12 13:35:00
6:55 AM,32.0,32.0,100,30.27,10.0,Calm,Calm,-,N/A,,Clear,0,2013-03-12 13:55:00
7:15 AM,32.0,32.0,100,30.27,10.0,Calm,Calm,-,N/A,,Clear,0,2013-03-12 14:15:00
7:35 AM,32.0,32.0,100,30.28,10.0,West,3.5,-,N/A,,Mostly Cloudy,280,2013-03-12 14:35:00
7:55 AM,32.0,32.0,100,30.28,10.0,Calm,Calm,-,N/A,,Overcast,0,2013-03-12 14:55:00
8:15 AM,35.6,33.8,93,30.28,10.0,Calm,Calm,-,N/A,,Overcast,0,2013-03-12 15:15:00
8:35 AM,37.4,35.6,93,30.28,10.0,Calm,Calm,-,N/A,,Overcast,0,2013-03-12 15:35:00
8:55 AM,37.4,35.6,93,30.28,0.5,Calm,Calm,-,N/A,,Overcast,0,2013-03-12 15:55:00
9:15 AM,37.4,37.4,100,30.28,0.5,Calm,Calm,-,N/A,,Overcast,0,2013-03-12 16:15:00
9:35 AM,37.4,37.4,100,30.28,2.5,Calm,Calm,-,N/A,,Overcast,0,2013-03-12 16:35:00
9:55 AM,39.2,37.4,93,30.28,9.0,Calm,Calm,-,N/A,,Mostly Cloudy,0,2013-03-12 16:55:00
10:15 AM,42.8,39.2,87,30.28,10.0,Calm,Calm,-,N/A,,Partly Cloudy,0,2013-03-12 17:15:00
10:35 AM,42.8,37.4,81,30.28,10.0,Calm,Calm,-,N/A,,Clear,0,2013-03-12 17:35:00
10:55 AM,46.4,37.4,71,30.27,10.0,ENE,3.5,-,N/A,,Clear,60,2013-03-12 17:55:00
11:15 AM,48.2,39.2,71,30.27,10.0,Calm,Calm,-,N/A,,Clear,0,2013-03-12 18:15:00
11:35 AM,50.0,39.2,66,30.26,10.0,Calm,Calm,-,N/A,,Clear,0,2013-03-12 18:35:00
11:55 AM,51.8,39.2,62,30.26,10.0,SSE,3.5,-,N/A,,Clear,150,2013-03-12 18:55:00
12:15 PM,53.6,39.2,58,30.24,10.0,Calm,Calm,-,N/A,,Clear,0,2013-03-12 19:15:00
12:35 PM,55.4,37.4,51,30.24,10.0,NE,3.5,-,N/A,,Clear,50,2013-03-12 19:35:00
12:55 PM,59.0,37.4,45,30.23,10.0,SE,3.5,-,N/A,,Clear,130,2013-03-12 19:55:00
1:15 PM,59.0,37.4,45,30.23,10.0,SE,3.5,-,N/A,,Clear,140,2013-03-12 20:15:00
1:35 PM,60.8,37.4,42,30.22,10.0,SSE,3.5,-,N/A,,Clear,150,2013-03-12 20:35:00
1:55 PM,60.8,39.2,45,30.21,10.0,Calm,Calm,-,N/A,,Clear,0,2013-03-12 20:55:00
2:15 PM,64.4,37.4,37,30.20,10.0,SE,3.5,-,N/A,,Clear,130,2013-03-12 21:15:00
2:35 PM,64.4,37.4,37,30.19,10.0,ENE,3.5,-,N/A,,Clear,70,2013-03-12 21:35:00
2:55 PM,64.4,39.2,40,30.19,10.0,Calm,Calm,-,N/A,,Clear,0,2013-03-12 21:55:00
3:15 PM,64.4,39.2,40,30.18,10.0,Calm,Calm,-,N/A,,Clear,0,2013-03-12 22:15:00
3:35 PM,62.6,39.2,42,30.18,10.0,Calm,Calm,-,N/A,,Clear,0,2013-03-12 22:35:00
3:55 PM,66.2,41.0,40,30.17,10.0,Calm,Calm,-,N/A,,Clear,0,2013-03-12 22:55:00
4:15 PM,64.4,41.0,42,30.17,10.0,Calm,Calm,-,N/A,,Clear,0,2013-03-12 23:15:00
4:35 PM,64.4,41.0,42,30.17,10.0,Calm,Calm,-,N/A,,Clear,0,2013-03-12 23:35:00
4:55 PM,64.4,42.8,45,30.17,10.0,Calm,Calm,-,N/A,,Clear,0,2013-03-12 23:55:00
5:15 PM,64.4,44.6,49,30.17,10.0,Calm,Calm,-,N/A,,Clear,0,2013-03-13 00:15:00
5:35 PM,64.4,44.6,49,30.16,10.0,Calm,Calm,-,N/A,,Clear,0,2013-03-13 00:35:00
5:55 PM,64.4,44.6,49,30.16,10.0,Calm,Calm,-,N/A,,Clear,0,2013-03-13 00:55:00
6:15 PM,62.6,46.4,55,30.16,10.0,Calm,Calm,-,N/A,,Clear,0,2013-03-13 01:15:00
6:35 PM,59.0,48.2,67,30.17,10.0,WNW,4.6,-,N/A,,Clear,290,2013-03-13 01:35:00
6:55 PM,57.2,46.4,67,30.17,10.0,Calm,Calm,-,N/A,,Clear,0,2013-03-13 01:55:00
7:15 PM,55.4,44.6,67,30.18,10.0,Calm,Calm,-,N/A,,Clear,0,2013-03-13 02:15:00
7:35 PM,55.4,44.6,67,30.19,10.0,WSW,3.5,-,N/A,,Clear,250,2013-03-13 02:35:00
7:55 PM,53.6,42.8,67,30.19,10.0,NE,3.5,-,N/A,,Clear,50,2013-03-13 02:55:00
8:15 PM,51.8,41.0,67,30.20,10.0,Calm,Calm,-,N/A,,Clear,0,2013-03-13 03:15:00
8:35 PM,48.2,41.0,76,30.22,10.0,Calm,Calm,-,N/A,,Clear,0,2013-03-13 03:35:00
8:55 PM,48.2,39.2,71,30.22,10.0,West,5.8,-,N/A,,Clear,280,2013-03-13 03:55:00
9:15 PM,46.4,39.2,76,30.22,10.0,Calm,Calm,-,N/A,,Clear,0,2013-03-13 04:15:00
9:35 PM,46.4,39.2,76,30.23,10.0,Calm,Calm,-,N/A,,Clear,0,2013-03-13 04:35:00
9:55 PM,46.4,37.4,71,30.24,10.0,West,4.6,-,N/A,,Clear,280,2013-03-13 04:55:00
10:15 PM,44.6,39.2,81,30.24,10.0,West,4.6,-,N/A,,Clear,260,2013-03-13 05:15:00
10:35 PM,44.6,39.2,81,30.25,10.0,Calm,Calm,-,N/A,,Clear,0,2013-03-13 05:35:00
10:55 PM,42.8,37.4,81,30.25,10.0,West,3.5,-,N/A,,Clear,280,2013-03-13 05:55:00
11:15 PM,41.0,37.4,87,30.26,10.0,West,4.6,-,N/A,,Clear,260,2013-03-13 06:15:00
11:35 PM,41.0,37.4,87,30.26,10.0,West,3.5,-,N/A,,Clear,260,2013-03-13 06:35:00
11:55 PM,41.0,37.4,87,30.26,10.0,Calm,Calm,-,N/A,,Clear,0,2013-03-13 06:55:00